Time;durP1;ratioP1;P1;durP2;ratioP2;P2;SDS_P1;SDS_P2;PMS_P1;PMS_P2;Temp;Humidity;BMP_temperature;BMP_pressure;BME280_temperature;BME280_humidity;BME280_pressure;Samples;Min_cycle;Max_cycle;Signal;HPM_P1;HPM_P2
2022/11/14 00:00:43;;;;;;;30.80;24.57;;;;;;;-145.14;100.00;70583.66;5051454;28;20211;-71
2022/11/14 00:03:09;;;;;;;28.90;24.07;;;;;;;-145.14;100.00;70583.66;5062662;28;20564;-71
2022/11/14 00:05:42;;;;;;;34.10;25.73;;;;;;;-145.14;100.00;70583.66;5056121;28;20440;-71
2022/11/14 00:08:34;;;;;;;28.83;24.80;;;;;;;-145.14;100.00;70583.66;5054102;28;20505;-71
2022/11/14 00:10:59;;;;;;;30.90;24.50;;;;;;;-145.14;100.00;70583.66;5054991;28;20876;-70
2022/11/14 00:13:25;;;;;;;29.37;24.43;;;;;;;-145.14;100.00;70583.66;5056517;28;20437;-71
2022/11/14 00:15:54;;;;;;;27.70;24.30;;;;;;;-145.14;100.00;70583.66;5051723;28;20187;-70
2022/11/14 00:18:20;;;;;;;31.73;25.07;;;;;;;-145.14;100.00;70583.66;5055576;28;20248;-71
2022/11/14 00:20:52;;;;;;;27.70;23.43;;;;;;;-145.14;100.00;70583.66;5055035;28;20468;-71
2022/11/14 00:23:19;;;;;;;29.33;25.23;;;;;;;-145.14;100.00;70583.66;5057690;28;20481;-71
2022/11/14 00:25:45;;;;;;;28.20;23.93;;;;;;;-145.14;100.00;70583.66;5068790;28;20554;-71
2022/11/14 00:28:11;;;;;;;28.03;22.77;;;;;;;-145.14;100.00;70583.66;5051324;28;20456;-71
2022/11/14 00:30:36;;;;;;;27.50;23.70;;;;;;;-145.14;100.00;70583.66;5051104;28;20452;-70
2022/11/14 00:33:02;;;;;;;29.80;24.43;;;;;;;-145.14;100.00;70583.66;5063264;28;20436;-70
2022/11/14 00:35:27;;;;;;;34.50;25.30;;;;;;;-145.14;100.00;70583.66;5059994;28;20183;-71
2022/11/14 00:37:53;;;;;;;28.40;23.40;;;;;;;-145.14;100.00;70583.66;5051290;28;20595;-71
2022/11/14 00:40:18;;;;;;;25.47;22.50;;;;;;;-145.14;100.00;70583.66;5054448;28;20297;-71
2022/11/14 00:42:44;;;;;;;28.43;23.47;;;;;;;-145.14;100.00;70583.66;5056864;28;20679;-71
2022/11/14 00:45:10;;;;;;;29.57;24.57;;;;;;;-145.14;100.00;70583.66;5053197;28;20298;-71
2022/11/14 00:47:36;;;;;;;30.67;25.13;;;;;;;-145.14;100.00;70583.66;5050719;28;20184;-71
2022/11/14 00:50:02;;;;;;;30.07;23.93;;;;;;;-145.14;100.00;70583.66;5052034;28;20458;-71
2022/11/14 00:52:28;;;;;;;31.73;24.17;;;;;;;-145.14;100.00;70583.66;5062482;28;20433;-71
2022/11/14 00:54:53;;;;;;;28.57;24.57;;;;;;;-145.14;100.00;70583.66;5057388;28;20460;-71
2022/11/14 00:57:19;;;;;;;27.90;24.00;;;;;;;-145.14;100.00;70583.66;5074278;28;20691;-71
2022/11/14 00:59:44;;;;;;;31.33;24.33;;;;;;;-145.14;100.00;70583.66;5058722;28;20223;-71
2022/11/14 01:02:09;;;;;;;28.27;23.87;;;;;;;-145.14;100.00;70583.66;5057317;28;20223;-71
2022/11/14 01:04:35;;;;;;;31.77;26.33;;;;;;;-145.14;100.00;70583.66;5059277;28;20182;-71
2022/11/14 01:07:00;;;;;;;30.80;25.53;;;;;;;-145.14;100.00;70583.66;5059726;28;20202;-70
2022/11/14 01:09:26;;;;;;;29.70;23.80;;;;;;;-145.14;100.00;70583.66;5063294;28;20210;-71
2022/11/14 01:11:51;;;;;;;30.90;24.77;;;;;;;-145.14;100.00;70583.66;5065173;28;20206;-71
2022/11/14 01:14:16;;;;;;;33.00;24.20;;;;;;;-145.14;100.00;70583.66;5058223;28;20200;-71
2022/11/14 01:16:42;;;;;;;29.83;26.40;;;;;;;-145.14;100.00;70583.66;5052495;28;20186;-71
2022/11/14 01:19:07;;;;;;;29.47;24.77;;;;;;;-145.14;100.00;70583.66;5058251;28;20203;-71
2022/11/14 01:21:33;;;;;;;30.87;25.50;;;;;;;-145.14;100.00;70583.66;5059040;28;20183;-71
2022/11/14 01:23:58;;;;;;;31.10;25.83;;;;;;;-145.14;100.00;70583.66;5057704;28;20284;-71
2022/11/14 01:26:24;;;;;;;29.70;24.70;;;;;;;-145.14;100.00;70583.66;5061333;28;20659;-71
2022/11/14 01:28:50;;;;;;;31.00;25.73;;;;;;;-145.14;100.00;70583.66;5074646;28;20213;-71
2022/11/14 01:31:21;;;;;;;30.43;25.60;;;;;;;-145.14;100.00;70583.66;5059976;28;20446;-71
2022/11/14 01:33:51;;;;;;;31.90;27.23;;;;;;;-145.14;100.00;70583.66;5054527;28;20251;-71
2022/11/14 01:36:17;;;;;;;33.57;27.10;;;;;;;-145.14;100.00;70583.66;5058506;28;20518;-71
2022/11/14 01:38:43;;;;;;;34.63;27.50;;;;;;;-145.14;100.00;70583.66;5047730;28;20444;-71
2022/11/14 01:41:13;;;;;;;34.70;27.20;;;;;;;-145.14;100.00;70583.66;5061120;28;20433;-71
2022/11/14 01:43:39;;;;;;;34.67;27.33;;;;;;;-145.14;100.00;70583.66;5054529;28;20511;-71
2022/11/14 01:46:12;;;;;;;32.67;26.70;;;;;;;-145.14;100.00;70583.66;5049458;28;20437;-71
2022/11/14 01:48:45;;;;;;;35.90;28.23;;;;;;;-145.14;100.00;70583.66;5053984;28;20434;-71
2022/11/14 01:51:10;;;;;;;35.10;29.17;;;;;;;-145.14;100.00;70583.66;5053750;28;20452;-70
2022/11/14 01:53:36;;;;;;;30.80;25.67;;;;;;;-145.14;100.00;70583.66;5055162;28;20434;-71
2022/11/14 01:56:04;;;;;;;37.77;28.60;;;;;;;-145.14;100.00;70583.66;5059989;28;21192;-70
2022/11/14 01:58:33;;;;;;;35.70;27.80;;;;;;;-145.14;100.00;70583.66;5059741;28;20253;-71
2022/11/14 02:00:58;;;;;;;29.80;26.10;;;;;;;-145.14;100.00;70583.66;5058389;28;20445;-71
2022/11/14 02:03:24;;;;;;;34.10;26.50;;;;;;;-145.14;100.00;70583.66;5055166;28;20545;-71
2022/11/14 02:05:51;;;;;;;33.47;27.13;;;;;;;-145.14;100.00;70583.66;5057037;28;20194;-71
2022/11/14 02:08:17;;;;;;;33.17;27.40;;;;;;;-145.14;100.00;70583.66;5058400;28;20202;-70
2022/11/14 02:10:43;;;;;;;32.60;27.77;;;;;;;-145.14;100.00;70583.66;5059665;28;20518;-71
2022/11/14 02:13:08;;;;;;;36.77;27.90;;;;;;;-145.14;100.00;70583.66;5056603;28;20430;-71
2022/11/14 02:15:34;;;;;;;31.20;27.67;;;;;;;-145.14;100.00;70583.66;5061802;28;20174;-71
2022/11/14 02:18:00;;;;;;;42.60;29.43;;;;;;;-145.14;100.00;70583.66;5047953;28;20183;-71
2022/11/14 02:20:31;;;;;;;33.90;27.70;;;;;;;-145.14;100.00;70583.66;5054021;28;20469;-71
2022/11/14 02:22:57;;;;;;;31.57;26.83;;;;;;;-145.14;100.00;70583.66;5071315;28;20488;-71
2022/11/14 02:25:23;;;;;;;35.13;29.17;;;;;;;-145.14;100.00;70583.66;5056563;28;21066;-70
2022/11/14 02:27:49;;;;;;;30.60;27.30;;;;;;;-145.14;100.00;70583.66;5051742;28;21855;-71
2022/11/14 02:30:18;;;;;;;36.33;27.77;;;;;;;-145.14;100.00;70583.66;5054129;28;20207;-71
2022/11/14 02:32:43;;;;;;;33.17;27.63;;;;;;;-145.14;100.00;70583.66;5070293;28;20993;-71
2022/11/14 02:35:09;;;;;;;33.07;28.17;;;;;;;-145.14;100.00;70583.66;5047702;28;20752;-71
2022/11/14 02:37:36;;;;;;;34.90;28.20;;;;;;;-145.14;100.00;70583.66;5052176;28;20198;-71
2022/11/14 02:40:02;;;;;;;33.77;28.20;;;;;;;-145.14;100.00;70583.66;5052251;28;26508;-71
2022/11/14 02:42:27;;;;;;;35.13;29.83;;;;;;;-145.14;100.00;70583.66;5049829;28;21000;-71
2022/11/14 02:44:53;;;;;;;37.30;30.97;;;;;;;-145.14;100.00;70583.66;5051041;28;20643;-71
2022/11/14 02:47:19;;;;;;;39.10;29.67;;;;;;;-145.14;100.00;70583.66;5047996;28;20183;-71
2022/11/14 02:49:44;;;;;;;35.53;28.80;;;;;;;-145.14;100.00;70583.66;5048436;28;20221;-71
2022/11/14 02:52:09;;;;;;;38.23;31.70;;;;;;;-145.14;100.00;70583.66;5049596;28;20190;-71
2022/11/14 02:54:35;;;;;;;45.83;33.00;;;;;;;-145.14;100.00;70583.66;5045093;28;20357;-71
2022/11/14 02:57:00;;;;;;;36.03;29.03;;;;;;;-145.14;100.00;70583.66;5049369;28;20273;-71
2022/11/14 02:59:26;;;;;;;35.23;29.90;;;;;;;-145.14;100.00;70583.66;5052626;28;20219;-71
2022/11/14 03:01:51;;;;;;;38.13;30.33;;;;;;;-145.14;100.00;70583.66;5045805;28;20195;-71
2022/11/14 03:04:16;;;;;;;38.97;31.00;;;;;;;-145.14;100.00;70583.66;5050307;28;20221;-71
2022/11/14 03:06:42;;;;;;;37.17;30.77;;;;;;;-145.14;100.00;70583.66;5050842;28;20223;-71
2022/11/14 03:09:07;;;;;;;41.43;31.77;;;;;;;-145.14;100.00;70583.66;5051829;28;20277;-70
2022/11/14 03:11:33;;;;;;;37.93;31.93;;;;;;;-145.14;100.00;70583.66;5054683;28;20183;-71
2022/11/14 03:13:59;;;;;;;43.07;33.00;;;;;;;-145.14;100.00;70583.66;5052999;28;20240;-71
2022/11/14 03:16:24;;;;;;;40.33;31.70;;;;;;;-145.14;100.00;70583.66;5054480;28;20473;-71
2022/11/14 03:18:50;;;;;;;39.57;31.17;;;;;;;-145.14;100.00;70583.66;5052992;28;20452;-71
2022/11/14 03:21:19;;;;;;;39.47;31.87;;;;;;;-145.14;100.00;70583.66;5053250;28;20183;-71
2022/11/14 03:23:45;;;;;;;40.93;32.77;;;;;;;-145.14;100.00;70583.66;5053420;28;20697;-71
2022/11/14 03:26:12;;;;;;;44.73;34.13;;;;;;;-145.14;100.00;70583.66;5052635;28;20433;-71
2022/11/14 03:28:38;;;;;;;42.80;33.00;;;;;;;-145.14;100.00;70583.66;5043098;28;20580;-71
2022/11/14 03:31:04;;;;;;;38.63;32.13;;;;;;;-145.14;100.00;70583.66;5047470;28;20479;-71
2022/11/14 03:33:30;;;;;;;37.17;30.53;;;;;;;-145.14;100.00;70583.66;5050574;28;20441;-71
2022/11/14 03:35:56;;;;;;;36.27;30.60;;;;;;;-145.14;100.00;70583.66;5053834;28;20959;-71
2022/11/14 03:38:22;;;;;;;39.07;30.90;;;;;;;-145.14;100.00;70583.66;5064341;28;20451;-71
2022/11/14 03:40:51;;;;;;;37.60;31.30;;;;;;;-145.14;100.00;70583.66;5058891;28;20306;-71
2022/11/14 03:43:18;;;;;;;39.90;31.10;;;;;;;-145.14;100.00;70583.66;5056831;28;20234;-71
2022/11/14 03:45:44;;;;;;;39.23;32.00;;;;;;;-145.14;100.00;70583.66;5056949;28;20535;-71
2022/11/14 03:48:10;;;;;;;45.90;32.90;;;;;;;-145.14;100.00;70583.66;5054191;28;20544;-71
2022/11/14 03:50:35;;;;;;;41.10;33.07;;;;;;;-145.14;100.00;70583.66;5056916;28;20453;-71
2022/11/14 03:53:01;;;;;;;37.33;30.40;;;;;;;-145.14;100.00;70583.66;5059012;28;20841;-71
2022/11/14 03:55:26;;;;;;;37.70;31.30;;;;;;;-145.14;100.00;70583.66;5054403;28;20665;-71
2022/11/14 03:57:52;;;;;;;37.00;30.47;;;;;;;-145.14;100.00;70583.66;5056807;28;20701;-71
2022/11/14 04:00:18;;;;;;;35.87;29.70;;;;;;;-145.14;100.00;70583.66;5045226;22;20223;-70
2022/11/14 04:02:43;;;;;;;35.40;29.10;;;;;;;-145.14;100.00;70583.66;5017223;28;20214;-70
2022/11/14 04:05:08;;;;;;;33.63;27.10;;;;;;;-145.14;100.00;70583.66;5021412;28;20622;-71
2022/11/14 04:07:34;;;;;;;33.20;28.20;;;;;;;-145.14;100.00;70583.66;5016726;28;20199;-70
2022/11/14 04:10:00;;;;;;;35.30;29.00;;;;;;;-145.14;100.00;70583.66;5013307;28;20246;-70
2022/11/14 04:12:25;;;;;;;33.97;28.30;;;;;;;-145.14;100.00;70583.66;5015788;28;20180;-70
2022/11/14 04:14:50;;;;;;;35.43;26.53;;;;;;;-145.14;100.00;70583.66;5017677;28;20361;-70
2022/11/14 04:17:16;;;;;;;30.60;26.50;;;;;;;-145.14;100.00;70583.66;5011485;28;20192;-70
2022/11/14 04:19:41;;;;;;;31.50;27.47;;;;;;;-145.14;100.00;70583.66;5011652;28;20216;-70
2022/11/14 04:22:07;;;;;;;31.63;25.80;;;;;;;-145.14;100.00;70583.66;5014894;28;20291;-70
2022/11/14 04:24:32;;;;;;;35.40;27.77;;;;;;;-145.14;100.00;70583.66;5026197;28;20196;-70
2022/11/14 04:26:58;;;;;;;30.77;24.80;;;;;;;-145.14;100.00;70583.66;5015306;28;20192;-70
2022/11/14 04:29:23;;;;;;;32.33;26.03;;;;;;;-145.14;100.00;70583.66;5011821;28;20223;-70
2022/11/14 04:31:49;;;;;;;32.20;24.60;;;;;;;-145.14;100.00;70583.66;5007071;28;20224;-70
2022/11/14 04:34:14;;;;;;;30.47;25.30;;;;;;;-145.14;100.00;70583.66;5012016;28;20272;-70
2022/11/14 04:36:39;;;;;;;31.47;24.40;;;;;;;-145.14;100.00;70583.66;5008116;28;20635;-70
2022/11/14 04:39:05;;;;;;;31.53;24.40;;;;;;;-145.14;100.00;70583.66;5008252;28;20216;-70
2022/11/14 04:41:30;;;;;;;29.50;25.27;;;;;;;-145.14;100.00;70583.66;5015990;28;20185;-70
2022/11/14 04:43:56;;;;;;;31.30;24.80;;;;;;;-145.14;100.00;70583.66;5013500;28;20863;-70
2022/11/14 04:46:21;;;;;;;29.80;24.40;;;;;;;-145.14;100.00;70583.66;5014027;28;20189;-70
2022/11/14 04:48:47;;;;;;;28.43;22.93;;;;;;;-145.14;100.00;70583.66;5012523;28;20667;-70
2022/11/14 04:51:12;;;;;;;34.23;24.63;;;;;;;-145.14;100.00;70583.66;5012963;28;20698;-69
2022/11/14 04:53:37;;;;;;;32.60;24.70;;;;;;;-145.14;100.00;70583.66;5013335;28;20181;-70
2022/11/14 04:56:03;;;;;;;30.30;23.50;;;;;;;-145.14;100.00;70583.66;5007623;28;20188;-70
2022/11/14 04:58:29;;;;;;;25.93;22.80;;;;;;;-145.14;100.00;70583.66;5006399;28;20727;-71
2022/11/14 05:00:56;;;;;;;31.63;26.00;;;;;;;-145.14;100.00;70583.66;5013189;28;20651;-70
2022/11/14 05:03:22;;;;;;;31.10;25.10;;;;;;;-145.14;100.00;70583.66;5007895;28;20255;-70
2022/11/14 05:05:48;;;;;;;30.97;24.43;;;;;;;-145.14;100.00;70583.66;5016812;28;20455;-70
2022/11/14 05:08:13;;;;;;;30.93;24.97;;;;;;;-145.14;100.00;70583.66;5010124;28;20937;-70
2022/11/14 05:10:43;;;;;;;28.33;24.40;;;;;;;-145.14;100.00;70583.66;5011054;28;20216;-71
2022/11/14 05:13:09;;;;;;;32.50;25.47;;;;;;;-145.14;100.00;70583.66;5011612;28;20590;-71
2022/11/14 05:15:34;;;;;;;33.57;25.93;;;;;;;-145.14;100.00;70583.66;5017521;28;20443;-71
2022/11/14 05:18:00;;;;;;;30.67;24.53;;;;;;;-145.14;100.00;70583.66;5009303;28;20546;-70
2022/11/14 05:20:25;;;;;;;35.00;27.90;;;;;;;-145.14;100.00;70583.66;5014859;28;20223;-72
2022/11/14 05:22:55;;;;;;;30.50;24.10;;;;;;;-145.14;100.00;70583.66;5013525;28;20686;-69
2022/11/14 05:25:21;;;;;;;31.87;24.80;;;;;;;-145.14;100.00;70583.66;5016025;28;20188;-70
2022/11/14 05:27:46;;;;;;;35.93;26.77;;;;;;;-145.14;100.00;70583.66;5011040;28;20447;-70
2022/11/14 05:30:12;;;;;;;31.77;23.50;;;;;;;-145.14;100.00;70583.66;5012582;28;20529;-70
2022/11/14 05:32:38;;;;;;;33.80;26.40;;;;;;;-145.14;100.00;70583.66;5009673;28;20189;-70
2022/11/14 05:35:04;;;;;;;30.70;23.33;;;;;;;-145.14;100.00;70583.66;5008694;28;20653;-70
2022/11/14 05:37:29;;;;;;;32.13;26.57;;;;;;;-145.14;100.00;70583.66;5009326;28;20644;-70
2022/11/14 05:39:55;;;;;;;34.47;27.20;;;;;;;-145.14;100.00;70583.66;5014119;28;20470;-70
2022/11/14 05:42:20;;;;;;;36.17;27.30;;;;;;;-145.14;100.00;70583.66;5030503;28;20207;-70
2022/11/14 05:44:46;;;;;;;31.13;25.43;;;;;;;-145.14;100.00;70583.66;5017666;28;20669;-70
2022/11/14 05:47:11;;;;;;;31.03;26.13;;;;;;;-145.14;100.00;70583.66;5009288;28;20694;-70
2022/11/14 05:49:36;;;;;;;33.70;25.83;;;;;;;-145.14;100.00;70583.66;5006246;28;20713;-70
2022/11/14 05:52:02;;;;;;;33.30;25.83;;;;;;;-145.14;100.00;70583.66;5012405;28;20669;-71
2022/11/14 05:54:27;;;;;;;35.90;27.07;;;;;;;-145.14;100.00;70583.66;5014657;28;20205;-70
2022/11/14 05:56:53;;;;;;;35.80;25.43;;;;;;;-145.14;100.00;70583.66;5018599;28;20274;-70
2022/11/14 05:59:18;;;;;;;31.53;25.77;;;;;;;-145.14;100.00;70583.66;5013913;28;20212;-70
2022/11/14 06:01:43;;;;;;;31.63;25.27;;;;;;;-145.14;100.00;70583.66;5012066;28;20270;-70
2022/11/14 06:04:11;;;;;;;30.63;25.40;;;;;;;-145.14;100.00;70583.66;5017011;28;20208;-70
2022/11/14 06:06:37;;;;;;;35.77;27.30;;;;;;;-145.14;100.00;70583.66;5017349;28;20192;-70
2022/11/14 06:09:02;;;;;;;32.60;25.67;;;;;;;-145.14;100.00;70583.66;5014845;28;21460;-70
2022/11/14 06:11:28;;;;;;;34.60;27.10;;;;;;;-145.14;100.00;70583.66;5004494;28;20204;-71
2022/11/14 06:13:53;;;;;;;34.50;25.60;;;;;;;-145.14;100.00;70583.66;5006284;28;20192;-71
2022/11/14 06:16:19;;;;;;;31.73;24.90;;;;;;;-145.14;100.00;70583.66;5008730;28;20216;-70
2022/11/14 06:18:45;;;;;;;32.63;25.37;;;;;;;-145.14;100.00;70583.66;5017861;28;20191;-71
2022/11/14 06:21:13;;;;;;;33.70;25.80;;;;;;;-145.14;100.00;70583.66;5014789;28;20199;-71
2022/11/14 06:23:39;;;;;;;32.73;25.80;;;;;;;-145.14;100.00;70583.66;5022617;28;20817;-72
2022/11/14 06:26:11;;;;;;;38.40;25.90;;;;;;;-145.14;100.00;70583.66;5032683;28;20513;-71
2022/11/14 06:28:36;;;;;;;33.27;25.93;;;;;;;-145.14;100.00;70583.66;5006072;28;20214;-70
2022/11/14 06:31:03;;;;;;;32.27;24.23;;;;;;;-145.14;100.00;70583.66;5003193;28;20472;-71
2022/11/14 06:33:33;;;;;;;32.03;25.70;;;;;;;-145.14;100.00;70583.66;5007193;28;20184;-71
2022/11/14 06:36:00;;;;;;;37.63;27.90;;;;;;;-145.14;100.00;70583.66;5006177;28;20499;-71
2022/11/14 06:38:29;;;;;;;32.73;25.40;;;;;;;-145.14;100.00;70583.66;5008870;28;20451;-71
2022/11/14 06:41:05;;;;;;;33.23;25.57;;;;;;;-145.14;100.00;70583.66;5016147;28;20463;-71
2022/11/14 06:43:42;;;;;;;30.77;24.90;;;;;;;-145.14;100.00;70583.66;5008640;28;20463;-71
2022/11/14 06:46:09;;;;;;;40.93;26.33;;;;;;;-145.14;100.00;70583.66;5007198;28;20431;-71
2022/11/14 06:48:38;;;;;;;32.80;25.63;;;;;;;-145.14;100.00;70583.66;5010246;28;20824;-71
2022/11/14 06:51:04;;;;;;;31.37;23.97;;;;;;;-145.14;100.00;70583.66;5016056;28;20473;-70
2022/11/14 06:53:32;;;;;;;33.93;26.10;;;;;;;-145.14;100.00;70583.66;5008503;28;20459;-70
2022/11/14 06:55:58;;;;;;;35.40;26.80;;;;;;;-145.14;100.00;70583.66;5008409;28;20465;-70
2022/11/14 06:58:26;;;;;;;30.60;24.53;;;;;;;-145.14;100.00;70583.66;5010434;28;20457;-70
2022/11/14 07:00:51;;;;;;;34.10;26.17;;;;;;;-145.14;100.00;70583.66;5015889;28;20475;-70
2022/11/14 07:03:17;;;;;;;30.73;24.63;;;;;;;-145.14;100.00;70583.66;5010709;28;20530;-70
2022/11/14 07:05:42;;;;;;;33.53;24.33;;;;;;;-145.14;100.00;70583.66;5014948;28;20541;-71
2022/11/14 07:08:08;;;;;;;35.30;26.50;;;;;;;-145.14;100.00;70583.66;5013960;28;20189;-70
2022/11/14 07:10:33;;;;;;;36.30;27.70;;;;;;;-145.14;100.00;70583.66;5014818;28;20248;-70
2022/11/14 07:12:59;;;;;;;38.90;27.20;;;;;;;-145.14;100.00;70583.66;5017509;28;20192;-70
2022/11/14 07:15:24;;;;;;;36.07;27.23;;;;;;;-145.14;100.00;70583.66;5015658;28;20675;-70
2022/11/14 07:17:49;;;;;;;33.20;26.53;;;;;;;-145.14;100.00;70583.66;5013794;28;20809;-70
2022/11/14 07:20:18;;;;;;;35.20;26.67;;;;;;;-145.14;100.00;70583.66;5017043;28;20575;-70
2022/11/14 07:22:46;;;;;;;35.83;26.83;;;;;;;-145.14;100.00;70583.66;5011643;28;20201;-70
2022/11/14 07:25:12;;;;;;;34.03;25.40;;;;;;;-145.14;100.00;70583.66;5013550;28;20458;-70
2022/11/14 07:27:38;;;;;;;36.57;25.67;;;;;;;-145.14;100.00;70583.66;5012943;28;20455;-70
2022/11/14 07:30:04;;;;;;;34.30;26.57;;;;;;;-145.14;100.00;70583.66;5010570;28;20455;-70
2022/11/14 07:32:29;;;;;;;34.00;26.13;;;;;;;-145.14;100.00;70583.66;5015093;28;20184;-70
2022/11/14 07:34:55;;;;;;;35.23;27.00;;;;;;;-145.14;100.00;70583.66;5016101;28;20960;-70
2022/11/14 07:37:20;;;;;;;33.90;25.30;;;;;;;-145.14;100.00;70583.66;5010818;28;22177;-70
2022/11/14 07:39:46;;;;;;;35.40;27.30;;;;;;;-145.14;100.00;70583.66;5014963;28;20214;-70
2022/11/14 07:42:11;;;;;;;34.97;26.23;;;;;;;-145.14;100.00;70583.66;5014304;28;20584;-71
2022/11/14 07:44:37;;;;;;;35.37;26.93;;;;;;;-145.14;100.00;70583.66;5012131;28;20261;-70
2022/11/14 07:47:02;;;;;;;30.57;24.53;;;;;;;-145.14;100.00;70583.66;5015002;28;20192;-71
2022/11/14 07:49:27;;;;;;;32.53;24.80;;;;;;;-145.14;100.00;70583.66;5014883;28;20208;-70
2022/11/14 07:51:53;;;;;;;33.90;25.50;;;;;;;-145.14;100.00;70583.66;5010008;28;20188;-70
2022/11/14 07:54:18;;;;;;;35.43;27.47;;;;;;;-145.14;100.00;70583.66;5009935;28;20191;-70
2022/11/14 07:56:44;;;;;;;36.57;25.43;;;;;;;-145.14;100.00;70583.66;5015058;28;20307;-70
2022/11/14 07:59:09;;;;;;;37.03;26.50;;;;;;;-145.14;100.00;70583.66;5012409;28;20204;-70
2022/11/14 08:01:35;;;;;;;40.77;26.70;;;;;;;-145.14;100.00;70583.66;5027084;28;20212;-69
2022/11/14 08:04:00;;;;;;;35.97;27.57;;;;;;;-145.14;100.00;70583.66;5014507;28;20216;-70
2022/11/14 08:06:26;;;;;;;33.10;26.20;;;;;;;-145.14;100.00;70583.66;5015043;28;20311;-70
2022/11/14 08:08:52;;;;;;;34.37;28.30;;;;;;;-145.14;100.00;70583.66;5016472;28;20192;-70
2022/11/14 08:11:46;;;;;;;35.50;27.27;;;;;;;-145.14;100.00;70583.66;5019957;28;20434;-70
2022/11/14 08:14:03;;;;;;;34.83;27.40;;;;;;;-145.14;100.00;70583.66;5019757;28;20191;-70
2022/11/14 08:16:28;;;;;;;31.37;25.23;;;;;;;-145.14;100.00;70583.66;5014333;28;20447;-70
2022/11/14 08:18:54;;;;;;;34.70;26.77;;;;;;;-145.14;100.00;70583.66;5014854;28;20185;-70
2022/11/14 08:21:19;;;;;;;33.80;26.43;;;;;;;-145.14;100.00;70583.66;5017914;28;20801;-70
2022/11/14 08:23:44;;;;;;;35.07;26.17;;;;;;;-145.14;100.00;70583.66;5017160;28;20663;-70
2022/11/14 08:26:10;;;;;;;35.50;27.17;;;;;;;-145.14;100.00;70583.66;5020751;28;20215;-70
2022/11/14 08:28:35;;;;;;;39.40;27.03;;;;;;;-145.14;100.00;70583.66;5020869;28;20181;-70
2022/11/14 08:31:02;;;;;;;38.80;27.07;;;;;;;-145.14;100.00;70583.66;5019087;28;20220;-71
2022/11/14 08:33:28;;;;;;;38.30;27.90;;;;;;;-145.14;100.00;70583.66;5023703;28;20188;-70
2022/11/14 08:35:54;;;;;;;35.73;27.10;;;;;;;-145.14;100.00;70583.66;5021809;28;20443;-70
2022/11/14 08:38:19;;;;;;;35.63;26.07;;;;;;;-145.14;100.00;70583.66;5024266;28;20445;-70
2022/11/14 08:40:45;;;;;;;38.13;28.50;;;;;;;-145.14;100.00;70583.66;5021656;28;20218;-70
2022/11/14 08:43:10;;;;;;;38.03;28.40;;;;;;;-145.14;100.00;70583.66;5020479;28;20204;-70
2022/11/14 08:45:36;;;;;;;35.90;27.57;;;;;;;-145.14;100.00;70583.66;5022527;28;20672;-70
2022/11/14 08:48:01;;;;;;;32.63;25.60;;;;;;;-145.14;100.00;70583.66;5020769;28;20189;-70
2022/11/14 08:50:26;;;;;;;34.47;27.03;;;;;;;-145.14;100.00;70583.66;5018114;28;20235;-70
2022/11/14 08:52:52;;;;;;;39.67;27.33;;;;;;;-145.14;100.00;70583.66;5023629;28;20203;-70
2022/11/14 08:55:19;;;;;;;38.63;26.60;;;;;;;-145.14;100.00;70583.66;5038416;28;20188;-70
2022/11/14 08:57:44;;;;;;;32.67;25.43;;;;;;;-145.14;100.00;70583.66;5021838;28;20219;-70
2022/11/14 09:00:10;;;;;;;37.37;27.20;;;;;;;-145.14;100.00;70583.66;5026943;28;20514;-70
2022/11/14 09:02:36;;;;;;;35.60;26.60;;;;;;;-145.14;100.00;70583.66;5019816;28;20290;-70
2022/11/14 09:05:01;;;;;;;33.40;25.60;;;;;;;-145.14;100.00;70583.66;5020547;28;21754;-70
2022/11/14 09:07:27;;;;;;;40.70;26.70;;;;;;;-145.14;100.00;70583.66;5018555;28;20181;-71
2022/11/14 09:09:53;;;;;;;34.17;26.40;;;;;;;-145.14;100.00;70583.66;5023090;28;20212;-71
2022/11/14 09:12:18;;;;;;;34.30;26.60;;;;;;;-145.14;100.00;70583.66;5024499;28;21089;-70
2022/11/14 09:14:44;;;;;;;35.77;25.90;;;;;;;-145.14;100.00;70583.66;5020671;28;20189;-70
2022/11/14 09:17:09;;;;;;;34.83;25.83;;;;;;;-145.14;100.00;70583.66;5019052;28;20200;-70
2022/11/14 09:19:35;;;;;;;33.60;27.30;;;;;;;-145.14;100.00;70583.66;5020631;28;20238;-70
2022/11/14 09:22:00;;;;;;;37.27;27.23;;;;;;;-145.14;100.00;70583.66;5020479;28;20222;-69
2022/11/14 09:24:26;;;;;;;34.33;26.90;;;;;;;-145.14;100.00;70583.66;5019828;28;20184;-69
2022/11/14 09:26:52;;;;;;;36.23;27.47;;;;;;;-145.14;100.00;70583.66;5012806;28;20199;-69
2022/11/14 09:29:17;;;;;;;35.83;25.77;;;;;;;-145.14;100.00;70583.66;5017123;28;20207;-69
2022/11/14 09:31:43;;;;;;;40.63;28.10;;;;;;;-145.14;100.00;70583.66;5020355;28;20184;-69
2022/11/14 09:34:09;;;;;;;34.07;25.63;;;;;;;-145.14;100.00;70583.66;5022417;28;20560;-69
2022/11/14 09:36:35;;;;;;;35.63;25.70;;;;;;;-145.14;100.00;70583.66;5019404;28;20462;-70
2022/11/14 09:39:00;;;;;;;36.03;27.33;;;;;;;-145.14;100.00;70583.66;5021953;28;20181;-70
2022/11/14 09:41:55;;;;;;;35.60;27.23;;;;;;;-145.14;100.00;70583.66;5018547;28;20189;-70
2022/11/14 09:44:44;;;;;;;31.90;25.47;;;;;;;-145.14;100.00;70583.66;5019183;28;20212;-69
2022/11/14 09:47:14;;;;;;;35.97;26.70;;;;;;;-145.14;100.00;70583.66;5018982;28;20526;-69
2022/11/14 09:49:43;;;;;;;33.57;25.63;;;;;;;-145.14;100.00;70583.66;5021006;28;20816;-69
2022/11/14 09:52:20;;;;;;;32.33;24.63;;;;;;;-145.14;100.00;70583.66;5020281;28;20446;-69
2022/11/14 09:55:02;;;;;;;34.40;25.83;;;;;;;-145.14;100.00;70583.66;5023596;28;20880;-69
2022/11/14 09:57:28;;;;;;;36.10;26.80;;;;;;;-145.14;100.00;70583.66;5018068;28;20435;-69
2022/11/14 09:59:54;;;;;;;35.87;25.40;;;;;;;-145.14;100.00;70583.66;5018989;28;20511;-70
2022/11/14 10:02:53;;;;;;;38.20;26.97;;;;;;;-145.14;100.00;70583.66;5021503;28;20528;-69
2022/11/14 10:05:49;;;;;;;35.67;25.63;;;;;;;-145.14;100.00;70583.66;5014539;28;20435;-69
2022/11/14 10:08:17;;;;;;;32.67;24.83;;;;;;;-145.14;100.00;70583.66;5017659;28;20967;-70
2022/11/14 10:11:00;;;;;;;38.07;25.27;;;;;;;-145.14;100.00;70583.66;5015456;28;20554;-69
2022/11/14 10:13:34;;;;;;;30.30;24.87;;;;;;;-145.14;100.00;70583.66;5021339;28;20412;-69
2022/11/14 10:16:02;;;;;;;34.90;26.67;;;;;;;-145.14;100.00;70583.66;5016832;28;20433;-69
2022/11/14 10:18:35;;;;;;;32.57;24.07;;;;;;;-145.14;100.00;70583.66;5015142;28;20450;-69
2022/11/14 10:21:09;;;;;;;36.50;26.47;;;;;;;-145.14;100.00;70583.66;5015283;28;20455;-70
2022/11/14 10:24:09;;;;;;;33.37;24.73;;;;;;;-145.14;100.00;70583.66;5019244;28;20451;-70
2022/11/14 10:26:40;;;;;;;36.30;27.00;;;;;;;-145.14;100.00;70583.66;5018887;28;20407;-70
2022/11/14 10:29:08;;;;;;;36.80;26.40;;;;;;;-145.14;100.00;70583.66;5017960;28;20474;-69
2022/11/14 10:31:52;;;;;;;33.40;25.10;;;;;;;-145.14;100.00;70583.66;5020379;28;20447;-70
2022/11/14 10:34:32;;;;;;;33.17;24.73;;;;;;;-145.14;100.00;70583.66;5020042;28;20537;-69
2022/11/14 10:37:03;;;;;;;33.80;25.13;;;;;;;-145.14;100.00;70583.66;5020235;28;20414;-70
2022/11/14 10:39:38;;;;;;;35.80;25.87;;;;;;;-145.14;100.00;70583.66;5017956;28;20472;-70
2022/11/14 10:42:13;;;;;;;37.97;26.73;;;;;;;-145.14;100.00;70583.66;5035399;28;20440;-69
2022/11/14 10:45:10;;;;;;;32.60;24.40;;;;;;;-145.14;100.00;70583.66;5018872;28;20498;-70
2022/11/14 10:47:40;;;;;;;30.73;23.50;;;;;;;-145.14;100.00;70583.66;5017332;28;20912;-69
2022/11/14 10:50:22;;;;;;;34.43;25.33;;;;;;;-145.14;100.00;70583.66;5016679;28;20932;-70
2022/11/14 10:52:55;;;;;;;35.43;25.67;;;;;;;-145.14;100.00;70583.66;5018806;28;20962;-69
2022/11/14 10:55:21;;;;;;;35.23;26.37;;;;;;;-145.14;100.00;70583.66;5018369;28;20439;-70